createdAt,value
2022-12-06T00:01:50.289Z,93308.38
2022-12-06T00:04:21.653Z,93306.63
2022-12-06T00:06:52.843Z,93303.22
2022-12-06T00:09:26.926Z,93309.22
2022-12-06T00:11:57.468Z,93304.03
2022-12-06T00:14:27.871Z,93294.56
2022-12-06T00:16:57.280Z,93301.53
2022-12-06T00:19:28.445Z,93302.47
2022-12-06T00:21:57.806Z,93295.66
2022-12-06T00:24:27.054Z,93295.59
2022-12-06T00:26:56.507Z,93286.31
2022-12-06T00:29:26.804Z,93290.84
2022-12-06T00:31:56.358Z,93285.81
2022-12-06T00:34:29.709Z,93293.59
2022-12-06T00:36:59.134Z,93283.38
2022-12-06T00:39:28.422Z,93285.03
2022-12-06T00:41:58.148Z,93286.81
2022-12-06T00:44:27.464Z,93286.88
2022-12-06T00:46:56.803Z,93285.13
2022-12-06T00:50:59.551Z,93279.88
2022-12-06T00:53:29.785Z,93279.81
2022-12-06T00:55:59.364Z,93275.25
2022-12-06T00:58:28.642Z,93272.44
2022-12-06T01:01:07.905Z,93272.38
2022-12-06T01:03:37.535Z,93272.22
2022-12-06T01:06:11.955Z,93266.13
2022-12-06T01:08:43.184Z,93256.63
2022-12-06T01:11:15.122Z,93264.25
2022-12-06T01:13:45.752Z,93255.66
2022-12-06T01:16:21.589Z,93251.38
2022-12-06T01:18:55.692Z,93250.47
2022-12-06T01:21:27.695Z,93247.09
2022-12-06T01:23:57.053Z,93248.84
2022-12-06T01:26:28.766Z,93246.22
2022-12-06T01:29:00.047Z,93240.13
2022-12-06T01:31:37.294Z,93242.69
2022-12-06T01:34:08.544Z,93235.91
2022-12-06T01:36:39.293Z,93232.44
2022-12-06T01:39:10.896Z,93232.56
2022-12-06T01:41:41.369Z,93227.44
2022-12-06T01:44:42.607Z,93217.19
2022-12-06T01:47:21.763Z,93224.19
2022-12-06T01:49:55.807Z,93219.16
2022-12-06T01:52:32.774Z,93212.47
2022-12-06T01:55:04.304Z,93223.63
2022-12-06T01:57:33.791Z,93224.41
2022-12-06T02:00:04.343Z,93226.00
2022-12-06T02:02:33.900Z,93228.53
2022-12-06T02:05:05.748Z,93228.69
2022-12-06T02:07:36.924Z,93234.13
2022-12-06T02:10:08.264Z,93240.31
2022-12-06T02:12:37.888Z,93233.47
2022-12-06T02:15:08.979Z,93231.63
2022-12-06T02:17:48.127Z,93226.31
2022-12-06T02:20:29.936Z,93224.47
2022-12-06T02:24:05.048Z,93219.25
2022-12-06T02:26:43.350Z,93213.97
2022-12-06T02:30:09.070Z,93217.41
2022-12-06T02:32:53.206Z,93209.50
2022-12-06T02:35:33.984Z,93206.97
2022-12-06T02:38:13.002Z,93205.16
2022-12-06T02:40:50.615Z,93206.91
2022-12-06T02:43:25.063Z,93205.16
2022-12-06T02:45:59.204Z,93214.50
2022-12-06T02:48:30.052Z,93206.75
2022-12-06T02:51:03.209Z,93209.50
2022-12-06T02:53:35.760Z,93208.72
2022-12-06T02:56:05.804Z,93213.19
2022-12-06T02:58:38.008Z,93221.34
2022-12-06T03:01:13.671Z,93217.28
2022-12-06T03:04:15.353Z,93216.53
2022-12-06T03:07:11.653Z,93216.53
2022-12-06T03:10:00.926Z,93216.31
2022-12-06T03:12:38.991Z,93214.44
2022-12-06T03:15:17.867Z,93214.34
2022-12-06T03:17:53.644Z,93218.22
2022-12-06T03:20:30.825Z,93227.03
2022-12-06T03:23:06.048Z,93218.44
2022-12-06T03:25:37.906Z,93215.56
2022-12-06T03:28:12.405Z,93217.16
2022-12-06T03:30:44.561Z,93216.19
2022-12-06T03:33:17.091Z,93215.72
2022-12-06T03:35:49.518Z,93216.41
2022-12-06T03:38:25.885Z,93212.91
2022-12-06T03:40:56.743Z,93216.25
2022-12-06T03:43:26.384Z,93213.66
2022-12-06T03:46:03.426Z,93207.59
2022-12-06T03:51:59.391Z,93206.66
2022-12-06T03:54:29.460Z,93202.25
2022-12-06T03:56:58.764Z,93200.66
2022-12-06T03:59:28.015Z,93207.41
2022-12-06T04:01:57.357Z,93202.25
2022-12-06T04:04:26.632Z,93205.75
2022-12-06T04:06:57.352Z,93203.06
2022-12-06T04:09:44.244Z,93202.47
2022-12-06T04:12:27.427Z,93200.78
2022-12-06T04:14:57.308Z,93211.75
2022-12-06T04:17:43.926Z,93212.47
2022-12-06T04:20:14.790Z,93205.53
2022-12-06T04:23:02.957Z,93204.56
2022-12-06T04:25:32.705Z,93201.13
2022-12-06T04:28:19.464Z,93195.19
2022-12-06T04:31:06.324Z,93192.72
2022-12-06T04:33:52.932Z,93189.53
2022-12-06T04:36:39.554Z,93192.28
2022-12-06T04:39:10.486Z,93192.13
2022-12-06T04:41:57.033Z,93196.22
2022-12-06T04:44:26.454Z,93196.09
2022-12-06T04:46:55.802Z,93190.91
2022-12-06T04:49:26.629Z,93189.16
2022-12-06T04:51:56.063Z,93186.81
2022-12-06T04:54:27.426Z,93191.28
2022-12-06T04:56:56.929Z,93186.25
2022-12-06T04:59:26.596Z,93187.16
2022-12-06T05:01:56.140Z,93185.34
2022-12-06T05:04:25.594Z,93189.69
2022-12-06T05:06:55.036Z,93192.47
2022-12-06T05:09:26.065Z,93189.88
2022-12-06T05:11:55.386Z,93195.75
2022-12-06T05:14:24.753Z,93186.03
2022-12-06T05:16:54.168Z,93191.16
2022-12-06T05:19:23.644Z,93194.47
2022-12-06T05:21:52.964Z,93187.41
2022-12-06T05:24:22.465Z,93187.31
2022-12-06T05:26:53.293Z,93191.66
2022-12-06T05:29:22.531Z,93193.41
2022-12-06T05:31:51.773Z,93194.25
2022-12-06T05:34:21.145Z,93194.25
2022-12-06T05:36:50.624Z,93195.88
2022-12-06T05:39:19.866Z,93187.19
2022-12-06T05:41:49.307Z,93191.44
2022-12-06T05:44:20.273Z,93186.50
2022-12-06T05:46:49.645Z,93190.09
2022-12-06T05:49:18.995Z,93187.72
2022-12-06T05:51:48.554Z,93193.88
2022-12-06T05:54:18.006Z,93196.53
2022-12-06T05:56:47.365Z,93192.13
2022-12-06T05:59:16.765Z,93194.47
2022-12-06T06:01:47.814Z,93193.66
2022-12-06T06:04:17.229Z,93201.50
2022-12-06T06:06:46.508Z,93201.28
2022-12-06T06:09:15.784Z,93207.13
2022-12-06T06:11:45.368Z,93206.09
2022-12-06T06:14:15.094Z,93207.75
2022-12-06T06:16:44.689Z,93205.91
2022-12-06T06:19:15.725Z,93196.34
2022-12-06T06:21:45.086Z,93207.44
2022-12-06T06:24:14.425Z,93202.22
2022-12-06T06:26:43.987Z,93202.94
2022-12-06T06:29:14.264Z,93207.22
2022-12-06T06:31:44.504Z,93209.75
2022-12-06T06:34:15.544Z,93213.41
2022-12-06T06:36:46.145Z,93215.06
2022-12-06T06:39:16.003Z,93215.06
2022-12-06T06:41:45.305Z,93208.91
2022-12-06T06:44:14.820Z,93212.25
2022-12-06T06:46:44.118Z,93207.06
2022-12-06T06:51:59.173Z,93193.06
2022-12-06T06:54:29.075Z,93197.41
2022-12-06T06:56:59.266Z,93196.63
2022-12-06T06:59:28.644Z,93205.25
2022-12-06T07:01:58.038Z,93203.50
2022-12-06T07:04:27.629Z,93209.44
2022-12-06T07:06:58.785Z,93209.44
2022-12-06T07:09:28.226Z,93207.69
2022-12-06T07:11:57.644Z,93211.97
2022-12-06T07:14:26.863Z,93209.50
2022-12-06T07:16:56.384Z,93198.31
2022-12-06T07:19:25.764Z,93200.00
2022-12-06T07:21:55.165Z,93206.00
2022-12-06T07:24:26.153Z,93201.16
2022-12-06T07:26:57.066Z,93202.94
2022-12-06T07:29:26.764Z,93193.59
2022-12-06T07:31:56.001Z,93192.75
2022-12-06T07:34:25.267Z,93193.38
2022-12-06T07:36:54.507Z,93192.22
2022-12-06T07:39:26.790Z,93198.00
2022-12-06T07:42:13.416Z,93191.16
2022-12-06T07:45:01.976Z,93195.19
2022-12-06T07:47:36.477Z,93197.41
2022-12-06T07:50:12.913Z,93201.59
2022-12-06T07:52:46.149Z,93198.94
2022-12-06T07:55:18.587Z,93193.50
2022-12-06T07:57:47.892Z,93198.56
2022-12-06T08:00:18.785Z,93199.22
2022-12-06T08:02:48.129Z,93194.03
2022-12-06T08:05:17.412Z,93188.84
2022-12-06T08:07:47.861Z,93192.06
2022-12-06T08:10:18.932Z,93194.56
2022-12-06T08:12:48.345Z,93185.28
2022-12-06T08:15:17.868Z,93176.66
2022-12-06T08:17:47.175Z,93179.94
2022-12-06T08:20:16.575Z,93183.22
2022-12-06T08:22:45.925Z,93180.63
2022-12-06T08:25:15.296Z,93185.13
2022-12-06T08:27:46.089Z,93182.69
2022-12-06T08:30:15.949Z,93177.66
2022-12-06T08:32:45.804Z,93176.59
2022-12-06T08:35:15.155Z,93171.16
2022-12-06T08:37:44.684Z,93167.59
2022-12-06T08:40:14.650Z,93172.69
2022-12-06T08:42:46.152Z,93172.69
2022-12-06T08:45:16.825Z,93165.75
2022-12-06T08:47:46.068Z,93165.38
2022-12-06T08:50:15.432Z,93161.97
2022-12-06T08:52:44.692Z,93159.28
2022-12-06T08:55:14.142Z,93160.44
2022-12-06T08:57:44.871Z,93145.75
2022-12-06T09:00:16.612Z,93140.31
2022-12-06T09:02:45.911Z,93146.88
2022-12-06T09:05:15.154Z,93140.59
2022-12-06T09:07:44.547Z,93135.28
2022-12-06T09:10:14.383Z,93125.91
2022-12-06T09:12:45.067Z,93128.09
2022-12-06T09:15:14.444Z,93137.28
2022-12-06T09:17:43.860Z,93122.44
2022-12-06T09:20:18.312Z,93122.28
2022-12-06T09:22:47.704Z,93110.41
2022-12-06T09:25:18.016Z,93108.53
2022-12-06T09:27:49.269Z,93107.63
2022-12-06T09:30:19.037Z,93106.63
2022-12-06T09:32:49.705Z,93104.88
2022-12-06T09:35:24.760Z,93094.50
2022-12-06T09:37:54.544Z,93097.88
2022-12-06T09:40:36.271Z,93098.59
2022-12-06T09:43:29.009Z,93095.28
2022-12-06T09:46:15.552Z,93097.88
2022-12-06T09:52:39.870Z,93084.81
2022-12-06T09:55:29.565Z,93080.38
2022-12-06T09:58:08.405Z,93073.25
2022-12-06T10:00:46.936Z,93075.44
2022-12-06T10:03:59.327Z,93076.78
2022-12-06T10:06:39.004Z,93068.81
2022-12-06T10:09:37.039Z,93069.34
2022-12-06T10:12:21.651Z,93060.56
2022-12-06T10:15:16.321Z,93058.03
2022-12-06T10:18:07.788Z,93061.47
2022-12-06T10:20:46.348Z,93056.38
2022-12-06T10:23:38.790Z,93049.44
2022-12-06T10:26:17.233Z,93047.91
2022-12-06T10:28:49.592Z,93053.00
2022-12-06T10:31:26.605Z,93052.03
2022-12-06T10:33:59.339Z,93044.91
2022-12-06T10:36:44.172Z,93038.69
2022-12-06T10:39:22.793Z,93035.38
2022-12-06T10:42:03.104Z,93032.94
2022-12-06T10:44:38.664Z,93032.09
2022-12-06T10:47:13.728Z,93025.25
2022-12-06T10:49:53.256Z,93023.41
2022-12-06T10:52:38.594Z,93008.69
2022-12-06T10:55:23.965Z,93001.81
2022-12-06T10:58:06.864Z,93001.91
2022-12-06T11:00:42.871Z,93002.00
2022-12-06T11:03:20.966Z,92993.22
2022-12-06T11:05:57.865Z,92991.44
2022-12-06T11:08:34.412Z,92993.03
2022-12-06T11:11:06.886Z,92987.84
2022-12-06T11:13:43.882Z,92993.38
2022-12-06T11:16:19.216Z,92983.66
2022-12-06T11:18:50.623Z,92973.41
2022-12-06T11:21:31.867Z,92979.56
2022-12-06T11:24:11.465Z,92973.56
2022-12-06T11:26:48.727Z,92977.09
2022-12-06T11:29:20.222Z,92962.63
2022-12-06T11:31:52.980Z,92969.31
2022-12-06T11:34:25.010Z,92966.06
2022-12-06T11:37:00.207Z,92966.56
2022-12-06T11:39:31.149Z,92963.81
2022-12-06T11:42:05.046Z,92958.69
2022-12-06T11:44:49.446Z,92960.13
2022-12-06T11:47:23.232Z,92958.16
2022-12-06T11:49:56.426Z,92960.59
2022-12-06T11:52:39.336Z,92953.84
2022-12-06T11:55:18.650Z,92946.69
2022-12-06T11:57:55.026Z,92939.69
2022-12-06T12:00:30.848Z,92944.78
2022-12-06T12:03:00.783Z,92945.72
2022-12-06T12:05:34.654Z,92943.22
2022-12-06T12:08:08.268Z,92943.38
2022-12-06T12:10:40.486Z,92947.91
2022-12-06T12:13:40.887Z,92944.47
2022-12-06T12:16:21.214Z,92936.69
2022-12-06T12:18:59.004Z,92946.66
2022-12-06T12:21:38.572Z,92934.63
2022-12-06T12:27:49.844Z,92926.69
2022-12-06T12:30:24.994Z,92915.47
2022-12-06T12:33:23.079Z,92924.09
2022-12-06T12:36:10.990Z,92923.06
2022-12-06T12:38:45.305Z,92920.31
2022-12-06T12:41:41.064Z,92914.28
2022-12-06T12:44:39.575Z,92917.72
2022-12-06T12:47:20.115Z,92918.38
2022-12-06T12:52:03.069Z,92927.25
2022-12-06T12:54:34.205Z,92921.41
2022-12-06T12:57:12.512Z,92924.81
2022-12-06T12:59:43.448Z,92919.66
2022-12-06T13:02:23.392Z,92919.78
2022-12-06T13:05:11.059Z,92920.59
2022-12-06T13:07:46.777Z,92921.28
2022-12-06T13:10:24.327Z,92918.50
2022-12-06T13:12:57.487Z,92911.56
2022-12-06T13:15:34.804Z,92923.50
2022-12-06T13:18:18.926Z,92914.00
2022-12-06T13:20:50.307Z,92911.56
2022-12-06T13:23:25.304Z,92905.56
2022-12-06T13:26:05.164Z,92904.63
2022-12-06T13:28:41.480Z,92906.03
2022-12-06T13:31:17.448Z,92904.25
2022-12-06T13:33:52.470Z,92907.03
2022-12-06T13:36:24.540Z,92901.03
2022-12-06T13:38:56.307Z,92901.19
2022-12-06T13:42:13.704Z,92893.75
2022-12-06T13:44:45.328Z,92897.44
2022-12-06T13:47:42.414Z,92894.03
2022-12-06T13:50:49.209Z,92892.91
2022-12-06T13:53:18.604Z,92890.00
2022-12-06T13:56:01.024Z,92890.84
2022-12-06T13:58:51.424Z,92897.94
2022-12-06T14:01:42.286Z,92898.78
2022-12-06T14:09:43.610Z,92912.75
2022-12-06T14:12:21.334Z,92899.69
2022-12-06T14:15:02.211Z,92907.38
2022-12-06T14:20:32.726Z,92900.78
2022-12-06T14:23:02.153Z,92899.31
2022-12-06T14:25:32.366Z,92901.72
2022-12-06T14:28:12.494Z,92910.22
2022-12-06T14:30:44.653Z,92911.53
2022-12-06T14:33:23.267Z,92905.56
2022-12-06T14:35:55.405Z,92903.91
2022-12-06T14:38:28.173Z,92899.66
2022-12-06T14:41:14.611Z,92904.91
2022-12-06T14:43:49.263Z,92918.69
2022-12-06T14:46:20.353Z,92920.28
2022-12-06T14:49:07.889Z,92914.13
2022-12-06T14:51:41.215Z,92913.25
2022-12-06T14:54:21.606Z,92919.53
2022-12-06T14:56:50.954Z,92918.06
2022-12-06T15:00:03.487Z,92918.88
2022-12-06T15:02:25.668Z,92913.63
2022-12-06T15:04:55.065Z,92903.59
2022-12-06T15:07:40.792Z,92897.91
2022-12-06T15:10:30.222Z,92902.59
2022-12-06T15:13:16.126Z,92903.53
2022-12-06T15:15:49.103Z,92904.44
2022-12-06T15:18:25.685Z,92912.38
2022-12-06T15:20:56.250Z,92911.47
2022-12-06T15:23:50.666Z,92910.47
2022-12-06T15:26:22.205Z,92899.09
2022-12-06T15:28:52.154Z,92903.25
2022-12-06T15:31:27.362Z,92905.03
2022-12-06T15:33:57.421Z,92892.22
2022-12-06T15:36:29.877Z,92893.00
2022-12-06T15:38:59.728Z,92898.34
2022-12-06T15:41:30.968Z,92892.44
2022-12-06T15:44:00.428Z,92896.69
2022-12-06T15:46:33.006Z,92896.69
2022-12-06T15:51:59.126Z,92899.44
2022-12-06T15:54:29.149Z,92901.19
2022-12-06T15:56:58.626Z,92901.97
2022-12-06T15:59:27.989Z,92901.03
2022-12-06T16:01:57.327Z,92897.50
2022-12-06T16:04:30.705Z,92890.56
2022-12-06T16:07:01.382Z,92885.22
2022-12-06T16:09:30.709Z,92886.22
2022-12-06T16:12:00.143Z,92888.75
2022-12-06T16:14:29.384Z,92896.31
2022-12-06T16:16:58.684Z,92887.81
2022-12-06T16:19:49.020Z,92892.91
2022-12-06T16:22:40.165Z,92887.72
2022-12-06T16:25:09.300Z,92886.88
2022-12-06T16:27:38.541Z,92894.75
2022-12-06T16:30:09.920Z,92893.09
2022-12-06T16:32:39.187Z,92898.28
2022-12-06T16:35:09.168Z,92890.50
2022-12-06T16:37:40.710Z,92894.91
2022-12-06T16:40:21.448Z,92889.75
2022-12-06T16:42:50.825Z,92889.00
2022-12-06T16:45:20.776Z,92887.41
2022-12-06T16:47:50.118Z,92892.59
2022-12-06T16:50:26.979Z,92886.56
2022-12-06T16:52:57.724Z,92884.81
2022-12-06T16:55:27.100Z,92888.41
2022-12-06T16:57:56.384Z,92883.22
2022-12-06T17:00:26.439Z,92890.00
2022-12-06T17:02:55.944Z,92884.91
2022-12-06T17:05:27.673Z,92886.47
2022-12-06T17:07:58.647Z,92885.59
2022-12-06T17:10:28.089Z,92890.84
2022-12-06T17:12:59.711Z,92887.41
2022-12-06T17:15:29.133Z,92883.22
2022-12-06T17:17:58.592Z,92885.91
2022-12-06T17:20:28.031Z,92890.34
2022-12-06T17:22:58.702Z,92888.66
2022-12-06T17:25:27.893Z,92887.75
2022-12-06T17:27:57.245Z,92880.88
2022-12-06T17:30:26.603Z,92887.00
2022-12-06T17:32:55.904Z,92886.06
2022-12-06T17:35:25.310Z,92879.22
2022-12-06T17:37:54.783Z,92880.00
2022-12-06T17:40:25.424Z,92873.22
2022-12-06T17:42:59.576Z,92877.91
2022-12-06T17:45:29.373Z,92876.22
2022-12-06T17:47:58.597Z,92872.91
2022-12-06T17:50:27.931Z,92879.00
2022-12-06T17:52:57.211Z,92868.56
2022-12-06T17:55:28.040Z,92865.03
2022-12-06T17:57:57.430Z,92863.47
2022-12-06T18:00:27.144Z,92865.53
2022-12-06T18:02:56.698Z,92857.88
2022-12-06T18:05:26.082Z,92859.03
2022-12-06T18:07:55.539Z,92858.38
2022-12-06T18:10:26.374Z,92862.78
2022-12-06T18:12:57.705Z,92855.19
2022-12-06T18:15:39.944Z,92863.03
2022-12-06T18:18:09.274Z,92861.44
2022-12-06T18:20:38.688Z,92857.97
2022-12-06T18:23:08.289Z,92855.84
2022-12-06T18:25:41.790Z,92856.69
2022-12-06T18:28:11.225Z,92861.97
2022-12-06T18:30:41.381Z,92855.28
2022-12-06T18:33:10.687Z,92864.13
2022-12-06T18:35:40.068Z,92865.97
2022-12-06T18:38:09.308Z,92866.13
2022-12-06T18:40:40.100Z,92861.53
2022-12-06T18:43:09.506Z,92855.53
2022-12-06T18:45:38.919Z,92850.47
2022-12-06T18:48:08.367Z,92854.72
2022-12-06T18:51:59.149Z,92850.47
2022-12-06T18:54:28.532Z,92840.25
2022-12-06T18:57:00.107Z,92841.25
2022-12-06T18:59:29.544Z,92844.03
2022-12-06T19:01:58.888Z,92844.19
2022-12-06T19:04:28.392Z,92844.34
2022-12-06T19:06:59.050Z,92840.09
2022-12-06T19:09:28.445Z,92833.06
2022-12-06T19:11:57.850Z,92837.34
2022-12-06T19:14:27.104Z,92829.50
2022-12-06T19:16:56.541Z,92833.69
2022-12-06T19:19:28.384Z,92830.00
2022-12-06T19:21:59.293Z,92825.00
2022-12-06T19:24:29.578Z,92825.97
2022-12-06T19:26:59.405Z,92830.31
2022-12-06T19:29:29.873Z,92829.66
2022-12-06T19:31:59.265Z,92824.41
2022-12-06T19:34:30.388Z,92822.72
2022-12-06T19:37:01.141Z,92830.81
2022-12-06T19:39:30.516Z,92826.47
2022-12-06T19:42:17.290Z,92819.47
2022-12-06T19:44:46.670Z,92824.81
2022-12-06T19:47:16.084Z,92818.03
2022-12-06T19:49:45.794Z,92813.06
2022-12-06T19:52:16.533Z,92811.97
2022-12-06T19:54:45.864Z,92812.72
2022-12-06T19:57:15.884Z,92806.63
2022-12-06T19:59:45.265Z,92797.88
2022-12-06T20:02:14.980Z,92806.63
2022-12-06T20:04:46.711Z,92813.06
2022-12-06T20:07:17.465Z,92817.31
2022-12-06T20:09:48.128Z,92815.66
2022-12-06T20:12:17.465Z,92814.88
2022-12-06T20:14:48.749Z,92815.81
2022-12-06T20:17:20.709Z,92819.97
2022-12-06T20:19:50.445Z,92826.72
2022-12-06T20:22:44.691Z,92823.16
2022-12-06T20:25:14.005Z,92825.66
2022-12-06T20:27:52.406Z,92819.75
2022-12-06T20:30:23.793Z,92826.63
2022-12-06T20:32:53.096Z,92823.22
2022-12-06T20:35:22.453Z,92826.00
2022-12-06T20:37:56.291Z,92826.63
2022-12-06T20:40:31.121Z,92825.81
2022-12-06T20:43:01.006Z,92820.06
2022-12-06T20:45:30.346Z,92814.88
2022-12-06T20:47:59.669Z,92814.56
2022-12-06T20:50:29.024Z,92815.31
2022-12-06T20:52:59.824Z,92820.38
2022-12-06T20:55:29.174Z,92813.44
2022-12-06T20:57:58.622Z,92807.53
2022-12-06T21:00:28.384Z,92810.38
2022-12-06T21:02:58.117Z,92808.63
2022-12-06T21:05:27.567Z,92808.47
2022-12-06T21:07:58.399Z,92800.59
2022-12-06T21:10:27.827Z,92802.22
2022-12-06T21:13:00.366Z,92799.38
2022-12-06T21:15:32.216Z,92791.66
2022-12-06T21:18:01.624Z,92791.66
2022-12-06T21:20:30.919Z,92797.03
2022-12-06T21:23:01.825Z,92795.09
2022-12-06T21:25:31.216Z,92797.44
2022-12-06T21:28:00.606Z,92800.00
2022-12-06T21:30:29.932Z,92799.75
2022-12-06T21:33:01.088Z,92783.50
2022-12-06T21:35:30.512Z,92783.59
2022-12-06T21:38:01.536Z,92780.91
2022-12-06T21:40:32.064Z,92779.16
2022-12-06T21:43:01.373Z,92787.75
2022-12-06T21:45:30.829Z,92780.81
2022-12-06T21:48:00.169Z,92782.50
2022-12-06T21:52:05.889Z,92777.31
2022-12-06T21:54:36.865Z,92785.31
2022-12-06T21:57:06.325Z,92777.91
2022-12-06T21:59:35.701Z,92775.47
2022-12-06T22:02:05.003Z,92775.56
2022-12-06T22:04:34.290Z,92776.25
2022-12-06T22:07:05.326Z,92770.41
2022-12-06T22:09:35.029Z,92770.72
2022-12-06T22:12:04.475Z,92761.38
2022-12-06T22:14:33.842Z,92756.97
2022-12-06T22:17:03.226Z,92761.81
2022-12-06T22:19:32.505Z,92763.56
2022-12-06T22:22:01.868Z,92761.38
2022-12-06T22:24:32.660Z,92759.97
2022-12-06T22:27:02.029Z,92757.22
2022-12-06T22:29:31.489Z,92757.88
2022-12-06T22:32:00.869Z,92742.47
2022-12-06T22:34:30.468Z,92744.38
2022-12-06T22:36:59.725Z,92744.28
2022-12-06T22:39:29.328Z,92745.38
2022-12-06T22:42:00.641Z,92741.88
2022-12-06T22:44:30.110Z,92733.69
2022-12-06T22:46:59.377Z,92728.16
2022-12-06T22:49:28.927Z,92738.00
2022-12-06T22:51:58.217Z,92729.50
2022-12-06T22:54:27.565Z,92726.91
2022-12-06T22:56:58.299Z,92729.50
2022-12-06T22:59:27.686Z,92729.50
2022-12-06T23:01:57.051Z,92733.75
2022-12-06T23:04:26.541Z,92730.75
2022-12-06T23:06:55.844Z,92724.06
2022-12-06T23:09:25.386Z,92730.22
2022-12-06T23:11:54.884Z,92727.81
2022-12-06T23:14:25.764Z,92720.28
2022-12-06T23:16:55.128Z,92724.94
2022-12-06T23:19:24.673Z,92717.88
2022-12-06T23:21:54.606Z,92722.72
2022-12-06T23:24:24.092Z,92715.66
2022-12-06T23:26:57.997Z,92716.31
2022-12-06T23:29:29.386Z,92714.66
2022-12-06T23:31:58.826Z,92719.66
2022-12-06T23:34:28.364Z,92717.16
2022-12-06T23:36:57.751Z,92711.31
2022-12-06T23:39:28.405Z,92714.22
2022-12-06T23:41:57.911Z,92715.44
2022-12-06T23:44:28.845Z,92716.44
2022-12-06T23:46:58.104Z,92715.59
2022-12-06T23:49:27.545Z,92710.69
2022-12-06T23:51:57.324Z,92712.56
2022-12-06T23:54:26.590Z,92716.03
2022-12-06T23:56:55.832Z,92721.84
2022-12-06T23:59:25.228Z,92721.84
